East Point, Florida
Current Conditions -  °F | °C
As of 3:53 PM on Saturday 25 Oct 2014 (Local Time) from KAAF Reporting Station
Clear Clear  
Wind Chill: 81°   Ceiling: Unl
Heat Index: 81°   Visibility: 10mi
Dew Point: 51°   Wind: 9mph
Humidity: 35%   Direction: 10°N
Pressure: 29.99"   Gusts: NA
Location:  29.8852°N, 84.8748°W
Report Text: KAAF 251953Z AUTO 01008KT 10SM CLR 27/11 A2999 RMK AO2 SLP155 T02720106 TSNO
Loading
Personal Weather Stations






























Interactive Weather Map
Tropical Storm Tracking
New forecast layout! Learn more

10-Day Weather Forecast

Advertisements
Track Severe Weather on mobile